Time,TemperatureF,DewpointF,PressureIn,WindDirection,WindDirectionDegrees,WindSpeedMPH,WindSpeedGustMPH,Humidity,HourlyPrecipIn,Conditions,Clouds,dailyrainin,SoftwareType,DateUTC
2013-06-19 00:02:00,60.0,58.0,29.88,NE,53,0.0,6.0,93,0.00,,,0.37,,2013-06-19 04:02:00,
2013-06-19 00:12:00,60.0,58.0,29.88,NE,53,0.0,4.0,93,0.00,,,0.37,,2013-06-19 04:12:00,
2013-06-19 00:22:00,60.0,58.0,29.88,NE,53,0.0,4.0,93,0.00,,,0.37,,2013-06-19 04:22:00,
2013-06-19 00:32:00,60.0,58.0,29.88,NE,53,0.0,4.0,93,0.00,,,0.37,,2013-06-19 04:32:00,
2013-06-19 00:43:00,60.0,58.0,29.89,NE,42,0.0,6.0,92,0.00,,,0.37,,2013-06-19 04:43:00,
2013-06-19 00:53:00,60.0,58.0,29.89,NE,42,0.0,6.0,92,0.00,,,0.37,,2013-06-19 04:53:00,
2013-06-19 01:01:00,60.0,58.0,29.89,NE,42,0.0,6.0,92,0.00,,,0.37,,2013-06-19 05:01:00,
2013-06-19 01:11:00,60.0,58.0,29.89,North,349,1.0,5.0,92,0.00,,,0.37,,2013-06-19 05:11:00,
2013-06-19 01:23:00,59.0,57.0,29.88,North,349,0.0,3.0,93,0.00,,,0.37,,2013-06-19 05:23:00,
2013-06-19 01:32:00,59.0,57.0,29.88,North,9,0.0,1.0,93,0.00,,,0.37,,2013-06-19 05:32:00,
2013-06-19 01:43:00,59.0,57.0,29.88,North,9,0.0,2.0,93,0.00,,,0.37,,2013-06-19 05:43:00,
2013-06-19 01:52:00,59.0,57.0,29.89,ENE,78,0.0,5.0,93,0.00,,,0.37,,2013-06-19 05:52:00,
2013-06-19 02:02:00,59.0,57.0,29.89,ENE,78,0.0,5.0,93,0.00,,,0.37,,2013-06-19 06:02:00,
2013-06-19 02:11:00,58.0,56.0,29.89,NE,38,1.0,6.0,93,0.00,,,0.37,,2013-06-19 06:11:00,
2013-06-19 02:22:00,58.0,56.0,29.88,NE,40,0.0,4.0,93,0.00,,,0.37,,2013-06-19 06:22:00,
2013-06-19 02:34:00,58.0,56.0,29.89,NNW,340,1.0,6.0,93,0.00,,,0.37,,2013-06-19 06:34:00,
2013-06-19 02:43:00,58.0,56.0,29.89,NNW,340,1.0,2.0,93,0.00,,,0.37,,2013-06-19 06:43:00,
2013-06-19 02:52:00,58.0,56.0,29.90,NNW,340,0.0,3.0,93,0.00,,,0.37,,2013-06-19 06:52:00,
2013-06-19 03:01:00,58.0,56.0,29.90,NNE,26,1.0,4.0,93,0.00,,,0.37,,2013-06-19 07:01:00,
2013-06-19 03:12:00,57.0,55.0,29.90,NNE,25,0.0,4.0,92,0.00,,,0.37,,2013-06-19 07:12:00,
2013-06-19 03:22:00,57.0,55.0,29.90,NE,46,0.0,4.0,93,0.00,,,0.37,,2013-06-19 07:22:00,
2013-06-19 03:33:00,57.0,55.0,29.91,NNW,328,0.0,2.0,93,0.00,,,0.37,,2013-06-19 07:33:00,
2013-06-19 03:43:00,56.0,54.0,29.91,NNW,328,1.0,3.0,93,0.00,,,0.37,,2013-06-19 07:43:00,
2013-06-19 03:53:00,56.0,54.0,29.91,NNW,329,0.0,3.0,93,0.00,,,0.37,,2013-06-19 07:53:00,
2013-06-19 04:02:00,56.0,54.0,29.91,NW,305,1.0,4.0,93,0.00,,,0.37,,2013-06-19 08:02:00,
2013-06-19 04:11:00,56.0,54.0,29.91,NW,307,0.0,4.0,94,0.00,,,0.37,,2013-06-19 08:11:00,
2013-06-19 04:22:00,55.0,53.0,29.91,NNW,337,0.0,4.0,94,0.00,,,0.37,,2013-06-19 08:22:00,
2013-06-19 04:34:00,55.0,53.0,29.91,NNW,337,1.0,3.0,94,0.00,,,0.37,,2013-06-19 08:34:00,
2013-06-19 04:43:00,55.0,53.0,29.91,North,355,1.0,4.0,94,0.00,,,0.37,,2013-06-19 08:43:00,
2013-06-19 04:53:00,55.0,53.0,29.92,NE,34,3.0,7.0,94,0.00,,,0.37,,2013-06-19 08:53:00,
2013-06-19 05:02:00,55.0,53.0,29.92,NE,44,2.0,5.0,93,0.00,,,0.37,,2013-06-19 09:02:00,
2013-06-19 05:12:00,55.0,53.0,29.91,NW,319,1.0,4.0,93,0.00,,,0.37,,2013-06-19 09:12:00,
2013-06-19 05:22:00,56.0,54.0,29.92,NNE,28,1.0,9.0,92,0.00,,,0.37,,2013-06-19 09:22:00,
2013-06-19 05:34:00,56.0,53.0,29.92,North,10,3.0,6.0,91,0.00,,,0.37,,2013-06-19 09:34:00,
2013-06-19 05:44:00,56.0,53.0,29.93,NNE,25,2.0,6.0,90,0.00,,,0.37,,2013-06-19 09:44:00,
2013-06-19 05:53:00,56.0,53.0,29.93,NNE,33,1.0,6.0,89,0.00,,,0.37,,2013-06-19 09:53:00,
2013-06-19 06:02:00,56.0,52.0,29.93,East,80,3.0,4.0,88,0.00,,,0.37,,2013-06-19 10:02:00,
2013-06-19 06:12:00,56.0,52.0,29.93,ENE,57,2.0,6.0,88,0.00,,,0.37,,2013-06-19 10:12:00,
2013-06-19 06:22:00,56.0,52.0,29.93,ENE,57,2.0,6.0,88,0.00,,,0.37,,2013-06-19 10:22:00,
2013-06-19 06:33:00,56.0,52.0,29.93,North,5,0.0,4.0,88,0.00,,,0.37,,2013-06-19 10:33:00,
2013-06-19 06:42:00,56.0,52.0,29.94,NE,47,1.0,5.0,86,0.00,,,0.37,,2013-06-19 10:42:00,
2013-06-19 06:52:00,56.0,52.0,29.94,NNW,344,0.0,5.0,86,0.00,,,0.37,,2013-06-19 10:52:00,
2013-06-19 07:02:00,56.0,51.0,29.95,ENE,78,0.0,4.0,84,0.00,,,0.37,,2013-06-19 11:02:00,
2013-06-19 07:12:00,56.0,51.0,29.95,East,86,1.0,5.0,84,0.00,,,0.37,,2013-06-19 11:12:00,
2013-06-19 07:22:00,56.0,52.0,29.96,WNW,302,0.0,6.0,85,0.00,,,0.37,,2013-06-19 11:22:00,
2013-06-19 07:33:00,56.0,52.0,29.96,NE,47,0.0,5.0,85,0.00,,,0.37,,2013-06-19 11:33:00,
2013-06-19 07:43:00,57.0,51.0,29.97,NNE,30,5.0,13.0,81,0.00,,,0.37,,2013-06-19 11:43:00,
2013-06-19 07:54:00,57.0,51.0,29.98,NNW,348,3.0,13.0,81,0.00,,,0.37,,2013-06-19 11:54:00,
2013-06-19 08:02:00,58.0,51.0,29.98,NNE,30,3.0,12.0,78,0.00,,,0.37,,2013-06-19 12:02:00,
2013-06-19 08:12:00,58.0,51.0,29.99,NE,37,1.0,13.0,77,0.00,,,0.37,,2013-06-19 12:12:00,
2013-06-19 08:22:00,59.0,51.0,30.00,East,80,2.0,11.0,74,0.00,,,0.37,,2013-06-19 12:22:00,
2013-06-19 08:34:00,59.0,50.0,30.00,NE,38,3.0,11.0,71,0.00,,,0.37,,2013-06-19 12:34:00,
2013-06-19 08:44:00,59.0,50.0,30.00,NE,38,3.0,11.0,71,0.00,,,0.37,,2013-06-19 12:44:00,
2013-06-19 08:53:00,60.0,49.0,30.01,SSE,163,3.0,14.0,67,0.00,,,0.37,,2013-06-19 12:53:00,
2013-06-19 09:02:00,60.0,49.0,30.01,NE,36,4.0,12.0,67,0.00,,,0.37,,2013-06-19 13:02:00,
2013-06-19 09:12:00,61.0,50.0,30.02,NNE,31,1.0,9.0,68,0.00,,,0.37,,2013-06-19 13:12:00,
2013-06-19 09:22:00,62.0,50.0,30.02,NE,40,4.0,15.0,65,0.00,,,0.37,,2013-06-19 13:22:00,
2013-06-19 09:33:00,62.0,51.0,30.02,NE,44,4.0,12.0,66,0.00,,,0.37,,2013-06-19 13:33:00,
2013-06-19 09:43:00,63.0,50.0,30.02,NE,56,5.0,12.0,63,0.00,,,0.37,,2013-06-19 13:43:00,
2013-06-19 09:53:00,63.0,51.0,30.03,NNE,29,2.0,12.0,64,0.00,,,0.37,,2013-06-19 13:53:00,
2013-06-19 10:02:00,63.0,51.0,30.03,NNE,22,1.0,11.0,64,0.00,,,0.37,,2013-06-19 14:02:00,
2013-06-19 10:12:00,63.0,51.0,30.03,NE,53,4.0,11.0,64,0.00,,,0.37,,2013-06-19 14:12:00,
2013-06-19 10:22:00,64.0,51.0,30.03,NNE,28,4.0,11.0,63,0.00,,,0.37,,2013-06-19 14:22:00,
2013-06-19 10:33:00,65.0,51.0,30.04,NE,54,3.0,9.0,61,0.00,,,0.37,,2013-06-19 14:33:00,
2013-06-19 10:44:00,65.0,51.0,30.04,NE,54,3.0,9.0,61,0.00,,,0.37,,2013-06-19 14:44:00,
2013-06-19 10:53:00,66.0,51.0,30.04,ENE,62,1.0,8.0,59,0.00,,,0.37,,2013-06-19 14:53:00,
2013-06-19 11:02:00,67.0,51.0,30.05,NE,51,1.0,7.0,57,0.00,,,0.37,,2013-06-19 15:02:00,
2013-06-19 11:11:00,67.0,50.0,30.05,NE,53,3.0,6.0,55,0.00,,,0.37,,2013-06-19 15:11:00,
2013-06-19 11:22:00,67.0,51.0,30.05,East,94,2.0,10.0,56,0.00,,,0.37,,2013-06-19 15:22:00,
2013-06-19 11:33:00,67.0,51.0,30.05,SW,220,2.0,10.0,56,0.00,,,0.37,,2013-06-19 15:33:00,
2013-06-19 11:43:00,69.0,50.0,30.06,NE,38,5.0,9.0,50,0.00,,,0.37,,2013-06-19 15:43:00,
2013-06-19 11:53:00,69.0,50.0,30.06,NE,38,5.0,9.0,50,0.00,,,0.37,,2013-06-19 15:53:00,
2013-06-19 12:01:00,69.0,48.0,30.05,NNE,27,5.0,11.0,47,0.00,,,0.37,,2013-06-19 16:01:00,
2013-06-19 12:11:00,69.0,50.0,30.05,South,171,1.0,12.0,51,0.00,,,0.37,,2013-06-19 16:11:00,
2013-06-19 12:22:00,69.0,48.0,30.05,ENE,67,4.0,13.0,48,0.00,,,0.37,,2013-06-19 16:22:00,
2013-06-19 12:34:00,69.0,48.0,30.05,NE,49,2.0,7.0,48,0.00,,,0.37,,2013-06-19 16:34:00,
2013-06-19 12:43:00,70.0,46.0,30.05,NNE,29,3.0,6.0,42,0.00,,,0.37,,2013-06-19 16:43:00,
2013-06-19 12:52:00,70.0,48.0,30.05,SSE,148,1.0,10.0,46,0.00,,,0.37,,2013-06-19 16:52:00,
2013-06-19 13:02:00,70.0,48.0,30.05,SSE,148,1.0,10.0,46,0.00,,,0.37,,2013-06-19 17:02:00,
2013-06-19 13:12:00,70.0,45.0,30.06,WSW,246,1.0,6.0,41,0.00,,,0.37,,2013-06-19 17:12:00,
2013-06-19 13:22:00,70.0,46.0,30.06,ENE,75,0.0,5.0,43,0.00,,,0.37,,2013-06-19 17:22:00,
2013-06-19 13:34:00,70.0,46.0,30.06,ENE,75,0.0,5.0,43,0.00,,,0.37,,2013-06-19 17:34:00,
2013-06-19 13:43:00,71.0,49.0,30.06,East,99,0.0,10.0,45,0.00,,,0.37,,2013-06-19 17:43:00,
2013-06-19 13:53:00,71.0,49.0,30.05,NW,322,2.0,7.0,45,0.00,,,0.37,,2013-06-19 17:53:00,
2013-06-19 14:02:00,71.0,50.0,30.05,NNE,32,1.0,10.0,47,0.00,,,0.37,,2013-06-19 18:02:00,
2013-06-19 14:12:00,71.0,49.0,30.05,South,186,2.0,5.0,46,0.00,,,0.37,,2013-06-19 18:12:00,
2013-06-19 14:24:00,71.0,49.0,30.04,NNE,16,3.0,5.0,46,0.00,,,0.37,,2013-06-19 18:24:00,
2013-06-19 14:33:00,72.0,50.0,30.05,NW,315,0.0,9.0,46,0.00,,,0.37,,2013-06-19 18:33:00,
2013-06-19 14:44:00,73.0,50.0,30.05,NNW,342,5.0,7.0,45,0.00,,,0.37,,2013-06-19 18:44:00,
2013-06-19 14:53:00,71.0,50.0,30.05,NNE,24,4.0,7.0,47,0.00,,,0.37,,2013-06-19 18:53:00,
2013-06-19 15:01:00,71.0,50.0,30.05,NNE,24,4.0,7.0,47,0.00,,,0.37,,2013-06-19 19:01:00,
2013-06-19 15:12:00,72.0,49.0,30.05,ENE,67,1.0,7.0,45,0.00,,,0.37,,2013-06-19 19:12:00,
2013-06-19 15:22:00,73.0,51.0,30.05,NW,324,1.0,5.0,46,0.00,,,0.37,,2013-06-19 19:22:00,
2013-06-19 15:32:00,72.0,48.0,30.06,WSW,251,0.0,5.0,43,0.00,,,0.37,,2013-06-19 19:32:00,
2013-06-19 15:43:00,73.0,50.0,30.06,North,351,2.0,6.0,45,0.00,,,0.37,,2013-06-19 19:43:00,
2013-06-19 15:52:00,72.0,49.0,30.06,NE,38,1.0,6.0,44,0.00,,,0.37,,2013-06-19 19:52:00,
2013-06-19 16:02:00,72.0,50.0,30.06,ENE,74,1.0,5.0,46,0.00,,,0.37,,2013-06-19 20:02:00,
2013-06-19 16:11:00,72.0,51.0,30.06,ENE,74,2.0,5.0,47,0.00,,,0.37,,2013-06-19 20:11:00,
2013-06-19 16:22:00,73.0,50.0,30.05,NE,52,1.0,6.0,44,0.00,,,0.37,,2013-06-19 20:22:00,
2013-06-19 16:33:00,73.0,50.0,30.05,NE,52,1.0,6.0,44,0.00,,,0.37,,2013-06-19 20:33:00,
2013-06-19 16:42:00,73.0,50.0,30.05,ENE,69,1.0,5.0,44,0.00,,,0.37,,2013-06-19 20:42:00,
2013-06-19 16:52:00,73.0,49.0,30.05,ENE,69,2.0,5.0,43,0.00,,,0.37,,2013-06-19 20:52:00,
2013-06-19 17:02:00,73.0,49.0,30.05,ENE,69,0.0,2.0,42,0.00,,,0.37,,2013-06-19 21:02:00,
2013-06-19 17:12:00,73.0,49.0,30.05,NNE,19,1.0,6.0,43,0.00,,,0.37,,2013-06-19 21:12:00,
2013-06-19 17:22:00,74.0,50.0,30.05,WNW,296,2.0,5.0,43,0.00,,,0.30,,2013-06-19 21:22:00,
2013-06-19 17:33:00,74.0,49.0,30.05,WSW,256,1.0,6.0,42,0.00,,,0.30,,2013-06-19 21:33:00,
2013-06-19 17:44:00,74.0,49.0,30.05,WNW,302,2.0,4.0,41,0.00,,,0.30,,2013-06-19 21:44:00,
2013-06-19 17:52:00,74.0,49.0,30.05,WNW,302,2.0,4.0,41,0.00,,,0.30,,2013-06-19 21:52:00,
2013-06-19 18:02:00,74.0,49.0,30.04,NE,49,0.0,5.0,42,0.00,,,0.30,,2013-06-19 22:02:00,
2013-06-19 18:11:00,74.0,48.0,30.04,West,281,1.0,7.0,40,0.00,,,0.30,,2013-06-19 22:11:00,
2013-06-19 18:22:00,74.0,52.0,30.04,West,265,2.0,5.0,47,0.00,,,0.03,,2013-06-19 22:22:00,
2013-06-19 18:34:00,74.0,49.0,30.04,WNW,288,1.0,7.0,42,0.00,,,0.03,,2013-06-19 22:34:00,
2013-06-19 18:43:00,75.0,50.0,30.04,ENE,66,0.0,4.0,41,0.00,,,0.03,,2013-06-19 22:43:00,
2013-06-19 18:53:00,74.0,49.0,30.04,NE,42,2.0,5.0,41,0.00,,,0.03,,2013-06-19 22:53:00,
2013-06-19 19:02:00,74.0,49.0,30.04,NE,42,2.0,5.0,41,0.00,,,0.03,,2013-06-19 23:02:00,
2013-06-19 19:12:00,74.0,54.0,30.05,NE,42,0.0,1.0,50,0.00,,,0.03,,2013-06-19 23:12:00,
2013-06-19 19:23:00,73.0,52.0,30.06,NE,42,0.0,1.0,48,0.00,,,0.01,,2013-06-19 23:23:00,
2013-06-19 19:34:00,73.0,55.0,30.06,NE,42,0.0,1.0,53,0.00,,,0.01,,2013-06-19 23:34:00,
2013-06-19 19:43:00,70.0,55.0,30.06,NE,42,0.0,1.0,58,0.00,,,0.01,,2013-06-19 23:43:00,
2013-06-19 19:52:00,69.0,55.0,30.06,NE,42,0.0,1.0,60,0.00,,,0.01,,2013-06-19 23:52:00,
2013-06-19 20:02:00,67.0,54.0,30.07,NE,42,0.0,1.0,62,0.00,,,0.01,,2013-06-20 00:02:00,
2013-06-19 20:12:00,67.0,54.0,30.07,NE,42,0.0,1.0,62,0.00,,,0.01,,2013-06-20 00:12:00,
2013-06-19 20:22:00,66.0,54.0,30.08,NE,42,0.0,1.0,66,0.00,,,0.00,,2013-06-20 00:22:00,
2013-06-19 20:33:00,65.0,54.0,30.08,NE,42,0.0,1.0,67,0.00,,,0.00,,2013-06-20 00:33:00,
2013-06-19 20:44:00,63.0,53.0,30.07,NE,42,0.0,1.0,71,0.00,,,0.00,,2013-06-20 00:44:00,
2013-06-19 20:52:00,62.0,53.0,30.08,NE,42,0.0,1.0,72,0.00,,,0.00,,2013-06-20 00:52:00,
2013-06-19 21:02:00,62.0,53.0,30.08,NE,42,0.0,1.0,72,0.00,,,0.00,,2013-06-20 01:02:00,
2013-06-19 21:11:00,61.0,52.0,30.09,NE,42,0.0,1.0,72,0.00,,,0.00,,2013-06-20 01:11:00,
2013-06-19 21:22:00,60.0,51.0,30.09,NE,42,0.0,0.0,73,0.00,,,0.00,,2013-06-20 01:22:00,
2013-06-19 21:33:00,60.0,51.0,30.09,NE,42,0.0,1.0,73,0.00,,,0.00,,2013-06-20 01:33:00,
2013-06-19 21:44:00,59.0,51.0,30.09,NE,42,0.0,1.0,74,0.00,,,0.00,,2013-06-20 01:44:00,
2013-06-19 21:52:00,59.0,51.0,30.10,NE,42,0.0,0.0,75,0.00,,,0.00,,2013-06-20 01:52:00,
2013-06-19 22:02:00,59.0,51.0,30.10,NE,42,0.0,0.0,74,0.00,,,0.00,,2013-06-20 02:02:00,
2013-06-19 22:11:00,59.0,51.0,30.11,NE,42,0.0,0.0,75,0.00,,,0.00,,2013-06-20 02:11:00,
2013-06-19 22:24:00,58.0,50.0,30.12,NE,42,0.0,1.0,75,0.00,,,0.00,,2013-06-20 02:24:00,
2013-06-19 22:34:00,58.0,50.0,30.12,NE,42,0.0,0.0,75,0.00,,,0.00,,2013-06-20 02:34:00,
2013-06-19 22:43:00,58.0,50.0,30.12,NE,42,0.0,0.0,76,0.00,,,0.00,,2013-06-20 02:43:00,
2013-06-19 22:52:00,58.0,50.0,30.13,NE,42,0.0,0.0,75,0.00,,,0.00,,2013-06-20 02:52:00,
2013-06-19 23:02:00,58.0,50.0,30.13,NE,42,0.0,0.0,75,0.00,,,0.00,,2013-06-20 03:02:00,
2013-06-19 23:11:00,58.0,50.0,30.13,NE,42,0.0,0.0,75,0.00,,,0.00,,2013-06-20 03:11:00,
2013-06-19 23:22:00,58.0,51.0,30.14,NE,42,0.0,0.0,77,0.00,,,0.00,,2013-06-20 03:22:00,
2013-06-19 23:33:00,57.0,50.0,30.14,NE,42,0.0,0.0,78,0.00,,,0.00,,2013-06-20 03:33:00,
2013-06-19 23:43:00,57.0,51.0,30.14,NE,42,0.0,1.0,81,0.00,,,0.00,,2013-06-20 03:43:00,
2013-06-19 23:53:00,57.0,52.0,30.14,NE,42,0.0,0.0,82,0.00,,,0.00,,2013-06-20 03:53:00,